Time;durP1;ratioP1;P1;durP2;ratioP2;P2;SDS_P1;SDS_P2;PMS_P1;PMS_P2;Temp;Humidity;BMP_temperature;BMP_pressure;BME280_temperature;BME280_humidity;BME280_pressure;Samples;Min_cycle;Max_cycle;Signal;HPM_P1;HPM_P2
2021/08/06 00:01:07;;;;;;;6.88;4.25;;;19.40;78.60;;;;;;5040580;28;20025;-93
2021/08/06 00:03:40;;;;;;;6.43;4.30;;;19.40;78.70;;;;;;5062118;28;20405;-92
2021/08/06 00:06:08;;;;;;;6.25;3.95;;;19.40;78.60;;;;;;5075211;28;20303;-93
2021/08/06 00:08:37;;;;;;;5.78;4.18;;;19.40;78.80;;;;;;5080099;28;20032;-91
2021/08/06 00:11:04;;;;;;;7.25;4.53;;;19.40;79.00;;;;;;5063783;28;20056;-91
2021/08/06 00:13:31;;;;;;;5.70;4.40;;;19.40;79.00;;;;;;5084331;28;20476;-93
2021/08/06 00:15:58;;;;;;;5.72;3.80;;;19.30;79.20;;;;;;5060136;28;20041;-92
2021/08/06 00:18:24;;;;;;;6.70;4.22;;;19.30;79.20;;;;;;5060339;28;20428;-92
2021/08/06 00:20:52;;;;;;;6.15;3.75;;;19.30;79.40;;;;;;5054910;28;20127;-93
2021/08/06 00:23:21;;;;;;;16.02;4.72;;;19.30;79.50;;;;;;5078715;28;20041;-92
2021/08/06 00:25:47;;;;;;;7.72;4.68;;;19.30;79.50;;;;;;5060599;28;20035;-92
2021/08/06 00:28:13;;;;;;;5.97;4.28;;;19.30;79.40;;;;;;5060838;28;20056;-92
2021/08/06 00:30:48;;;;;;;5.30;3.78;;;19.20;79.70;;;;;;5061853;28;20044;-92
2021/08/06 00:33:15;;;;;;;5.88;4.32;;;19.30;79.70;;;;;;5062433;28;20412;-93
2021/08/06 00:35:40;;;;;;;5.30;3.55;;;19.20;79.90;;;;;;5069445;28;20021;-91
2021/08/06 00:38:06;;;;;;;5.80;3.80;;;19.20;80.10;;;;;;5069950;28;20064;-92
2021/08/06 00:40:32;;;;;;;5.57;3.42;;;19.20;80.10;;;;;;5060691;28;20029;-92
2021/08/06 00:43:00;;;;;;;4.78;3.42;;;19.20;80.00;;;;;;5058320;28;20025;-91
2021/08/06 00:45:28;;;;;;;4.97;3.35;;;19.20;80.10;;;;;;5057091;28;20036;-91
2021/08/06 00:47:55;;;;;;;7.07;3.85;;;19.20;80.00;;;;;;5057692;28;20040;-93
2021/08/06 00:50:21;;;;;;;6.00;3.45;;;19.10;80.10;;;;;;5058441;28;20032;-93
2021/08/06 00:52:47;;;;;;;7.72;4.70;;;19.20;80.30;;;;;;5058113;28;20114;-93
2021/08/06 00:55:15;;;;;;;8.85;3.78;;;19.20;80.80;;;;;;5060572;28;20656;-92
2021/08/06 00:57:49;;;;;;;5.90;3.70;;;19.10;80.30;;;;;;5058792;28;20025;-92
2021/08/06 01:00:15;;;;;;;4.45;3.20;;;19.10;80.20;;;;;;5082444;28;20039;-92
2021/08/06 01:02:56;;;;;;;6.65;4.30;;;19.10;80.20;;;;;;5068086;28;20028;-92
2021/08/06 01:05:33;;;;;;;5.10;3.60;;;19.10;80.60;;;;;;5076905;28;20036;-94
2021/08/06 01:08:17;;;;;;;5.03;3.67;;;19.10;80.60;;;;;;5068766;28;20087;-92
2021/08/06 01:10:42;;;;;;;5.78;3.60;;;19.00;80.60;;;;;;5058350;28;20017;-92
2021/08/06 01:13:10;;;;;;;6.45;3.35;;;19.00;80.90;;;;;;5057506;28;20025;-92
2021/08/06 01:15:39;;;;;;;5.18;3.47;;;19.00;80.90;;;;;;5073697;28;20100;-93
2021/08/06 01:18:08;;;;;;;5.30;3.40;;;19.00;81.10;;;;;;5064723;28;20025;-91
2021/08/06 01:20:43;;;;;;;5.45;3.78;;;19.00;80.90;;;;;;5075760;28;20013;-93
2021/08/06 01:23:42;;;;;;;7.65;3.53;;;19.00;80.80;;;;;;5087411;28;20041;-93
2021/08/06 01:26:31;;;;;;;6.28;3.50;;;19.00;80.90;;;;;;5021395;28;20144;-93
2021/08/06 01:28:59;;;;;;;5.82;3.53;;;19.00;81.10;;;;;;5049137;28;20131;-90
2021/08/06 01:31:29;;;;;;;5.60;3.33;;;19.00;81.50;;;;;;5066274;28;20032;-90
2021/08/06 01:33:56;;;;;;;4.57;3.08;;;19.00;81.60;;;;;;5049694;28;20500;-92
2021/08/06 01:36:37;;;;;;;5.03;2.85;;;19.10;81.50;;;;;;5076742;28;20059;-91
2021/08/06 01:39:08;;;;;;;6.07;3.28;;;19.00;81.30;;;;;;5077355;28;20107;-92
2021/08/06 01:41:52;;;;;;;6.10;3.97;;;19.00;81.20;;;;;;5060471;28;20040;-92
2021/08/06 01:44:21;;;;;;;5.13;3.35;;;19.00;81.90;;;;;;5060286;28;20391;-91
2021/08/06 01:47:08;;;;;;;4.93;3.45;;;19.00;81.90;;;;;;5060465;28;20032;-91
2021/08/06 01:50:15;;;;;;;5.60;3.40;;;19.00;82.30;;;;;;5077475;28;20468;-91
2021/08/06 01:53:00;;;;;;;5.97;3.45;;;19.00;82.40;;;;;;5076848;28;20024;-92
2021/08/06 01:55:41;;;;;;;5.53;3.55;;;19.00;81.40;;;;;;5077682;28;20457;-91
2021/08/06 01:58:13;;;;;;;5.40;3.30;;;19.00;81.80;;;;;;5091985;28;20033;-91
2021/08/06 02:00:40;;;;;;;4.47;2.55;;;19.00;81.20;;;;;;5097629;28;20028;-90
2021/08/06 02:03:08;;;;;;;6.25;3.28;;;19.00;81.20;;;;;;5087935;28;20033;-93
2021/08/06 02:05:35;;;;;;;5.80;3.42;;;19.00;81.00;;;;;;5061657;28;20025;-92
2021/08/06 02:08:02;;;;;;;4.63;2.97;;;19.00;81.30;;;;;;5077543;28;20047;-91
2021/08/06 02:10:29;;;;;;;5.25;3.20;;;19.10;81.10;;;;;;5075853;28;20028;-91
2021/08/06 02:12:57;;;;;;;4.90;2.75;;;19.10;80.70;;;;;;5068844;28;20500;-91
2021/08/06 02:15:23;;;;;;;4.93;2.67;;;19.10;80.50;;;;;;5078896;28;20036;-92
2021/08/06 02:17:51;;;;;;;4.75;2.75;;;19.10;80.60;;;;;;5056900;28;20037;-90
2021/08/06 02:20:19;;;;;;;4.35;2.78;;;19.10;80.50;;;;;;5057083;28;20033;-93
2021/08/06 02:22:46;;;;;;;6.10;3.10;;;19.20;80.50;;;;;;5053012;28;20023;-83
2021/08/06 02:25:14;;;;;;;6.85;2.42;;;19.10;80.20;;;;;;5051363;28;20025;-80
2021/08/06 02:27:40;;;;;;;5.43;3.30;;;19.20;80.20;;;;;;5051595;28;20021;-81
2021/08/06 02:30:06;;;;;;;5.35;2.92;;;19.10;80.90;;;;;;5051694;28;20025;-81
2021/08/06 02:32:33;;;;;;;6.45;2.97;;;19.10;82.00;;;;;;5051005;28;20472;-81
2021/08/06 02:34:59;;;;;;;7.97;3.33;;;19.00;82.20;;;;;;5052860;28;20025;-82
2021/08/06 02:37:25;;;;;;;5.18;2.80;;;19.00;82.90;;;;;;5050552;28;20098;-82
2021/08/06 02:39:51;;;;;;;5.30;2.83;;;18.90;82.60;;;;;;5049087;28;20416;-81
2021/08/06 02:42:16;;;;;;;5.18;2.78;;;18.90;82.90;;;;;;5063823;28;20029;-81
2021/08/06 02:44:42;;;;;;;4.40;2.78;;;18.90;82.90;;;;;;5073238;28;20016;-83
2021/08/06 02:47:09;;;;;;;3.53;2.15;;;18.90;82.90;;;;;;5065357;28;20024;-82
2021/08/06 02:49:35;;;;;;;5.72;3.08;;;18.90;83.10;;;;;;5060045;28;20044;-83
2021/08/06 02:52:04;;;;;;;4.93;3.22;;;18.90;83.10;;;;;;5068697;28;20040;-82
2021/08/06 02:54:30;;;;;;;4.30;2.42;;;18.90;83.10;;;;;;5077146;28;20088;-82
2021/08/06 02:56:55;;;;;;;4.45;2.63;;;18.90;83.10;;;;;;5093798;28;20123;-83
2021/08/06 02:59:21;;;;;;;4.10;2.28;;;18.90;83.20;;;;;;5076291;28;20520;-84
2021/08/06 03:01:47;;;;;;;4.95;2.58;;;18.90;83.20;;;;;;5055055;28;20060;-83
2021/08/06 03:04:12;;;;;;;4.90;2.50;;;18.90;82.90;;;;;;5071517;28;20024;-83
2021/08/06 03:06:38;;;;;;;4.38;2.70;;;18.90;82.70;;;;;;5073001;28;20150;-83
2021/08/06 03:09:04;;;;;;;5.07;2.55;;;18.90;83.60;;;;;;5071409;28;20025;-83
2021/08/06 03:11:29;;;;;;;4.65;2.78;;;18.80;82.40;;;;;;5042353;28;20484;-84
2021/08/06 03:13:55;;;;;;;5.43;3.33;;;18.80;82.60;;;;;;5050378;28;20029;-83
2021/08/06 03:16:21;;;;;;;5.63;3.25;;;18.80;82.40;;;;;;5034989;28;20127;-84
2021/08/06 03:18:46;;;;;;;4.60;2.95;;;18.80;82.90;;;;;;5052464;28;20029;-84
2021/08/06 03:21:12;;;;;;;6.10;2.92;;;18.80;83.00;;;;;;5034632;28;20017;-84
2021/08/06 03:23:38;;;;;;;5.10;2.67;;;18.80;83.10;;;;;;5034712;28;20025;-84
2021/08/06 03:26:04;;;;;;;3.70;2.33;;;18.80;83.10;;;;;;5035357;28;20481;-83
2021/08/06 03:28:29;;;;;;;3.92;2.35;;;18.80;83.00;;;;;;5046478;28;20025;-84
2021/08/06 03:30:55;;;;;;;6.60;3.78;;;18.80;82.80;;;;;;5040642;28;20021;-83
2021/08/06 03:33:21;;;;;;;5.50;2.97;;;18.80;83.00;;;;;;5070257;28;20457;-84
2021/08/06 03:35:46;;;;;;;5.75;3.30;;;18.80;83.20;;;;;;5054472;28;20119;-85
2021/08/06 03:38:18;;;;;;;4.10;2.53;;;18.80;83.50;;;;;;5071420;28;20082;-85
2021/08/06 03:40:45;;;;;;;5.28;2.95;;;18.80;83.10;;;;;;5051569;28;20025;-85
2021/08/06 03:43:11;;;;;;;4.18;2.53;;;18.80;83.40;;;;;;5063837;28;20032;-84
2021/08/06 03:45:37;;;;;;;4.05;2.63;;;18.80;83.00;;;;;;5036420;28;20191;-85
2021/08/06 03:48:04;;;;;;;4.13;2.55;;;18.80;82.90;;;;;;5038611;28;20452;-84
2021/08/06 03:50:30;;;;;;;5.88;2.88;;;18.70;83.00;;;;;;5050246;28;20125;-81
2021/08/06 03:52:55;;;;;;;5.00;3.33;;;18.80;83.20;;;;;;5038098;28;20468;-80
2021/08/06 03:55:21;;;;;;;9.02;2.60;;;18.80;83.50;;;;;;5056536;28;20055;-80
2021/08/06 03:57:58;;;;;;;4.70;2.67;;;18.70;83.90;;;;;;5040241;28;20349;-80
2021/08/06 04:00:27;;;;;;;4.90;3.08;;;18.70;83.60;;;;;;5063819;28;20080;-78
2021/08/06 04:02:52;;;;;;;4.82;3.15;;;18.70;83.60;;;;;;5066320;28;20044;-78
2021/08/06 04:05:18;;;;;;;5.82;3.15;;;18.70;84.20;;;;;;5049181;28;20020;-79
2021/08/06 04:07:46;;;;;;;5.22;3.03;;;18.60;84.50;;;;;;5059312;28;20523;-78
2021/08/06 04:10:14;;;;;;;7.88;3.30;;;18.50;85.60;;;;;;5045090;28;20040;-80
2021/08/06 04:12:39;;;;;;;4.30;2.60;;;18.50;86.00;;;;;;5069204;28;20074;-79
2021/08/06 04:15:06;;;;;;;5.43;2.75;;;18.40;85.50;;;;;;5057152;28;20021;-78
2021/08/06 04:17:31;;;;;;;5.75;2.78;;;18.30;86.90;;;;;;5056564;28;20033;-78
2021/08/06 04:19:57;;;;;;;8.75;2.67;;;18.20;86.60;;;;;;5073054;28;20029;-78
2021/08/06 04:22:23;;;;;;;4.47;2.80;;;18.20;86.50;;;;;;5068025;28;20131;-78
2021/08/06 04:24:48;;;;;;;4.53;2.50;;;18.20;86.90;;;;;;5062902;28;20032;-78
2021/08/06 04:27:14;;;;;;;4.35;2.25;;;18.10;87.10;;;;;;5037371;28;20037;-78
2021/08/06 04:29:40;;;;;;;4.55;2.13;;;18.10;86.60;;;;;;5055402;28;20060;-78
2021/08/06 04:32:05;;;;;;;4.18;2.15;;;18.10;86.60;;;;;;5038003;28;20025;-79
2021/08/06 04:34:31;;;;;;;3.38;2.28;;;18.10;86.00;;;;;;5037374;28;20509;-78
2021/08/06 04:36:57;;;;;;;4.60;2.40;;;18.00;85.90;;;;;;5037688;28;20063;-78
2021/08/06 04:39:22;;;;;;;3.60;2.20;;;18.00;86.80;;;;;;5070627;28;20015;-79
2021/08/06 04:41:49;;;;;;;3.67;2.40;;;18.00;86.20;;;;;;5058562;28;20035;-79
2021/08/06 04:44:15;;;;;;;4.00;2.40;;;18.00;86.40;;;;;;5053958;28;20021;-79
2021/08/06 04:46:41;;;;;;;3.67;2.17;;;18.00;87.40;;;;;;5058407;28;20040;-78
2021/08/06 04:49:07;;;;;;;4.28;2.47;;;18.00;88.10;;;;;;5034307;28;20029;-78
2021/08/06 04:51:32;;;;;;;4.05;2.42;;;18.10;88.60;;;;;;5052431;28;20029;-78
2021/08/06 04:53:58;;;;;;;5.30;2.25;;;18.10;88.10;;;;;;5033771;28;20029;-78
2021/08/06 04:56:24;;;;;;;4.13;2.45;;;18.10;88.20;;;;;;5033635;28;20044;-78
2021/08/06 04:58:49;;;;;;;3.75;2.00;;;18.10;88.60;;;;;;5043606;28;20043;-80
2021/08/06 05:01:15;;;;;;;7.80;2.92;;;18.10;89.00;;;;;;5065949;28;20020;-79
2021/08/06 05:03:40;;;;;;;4.95;2.70;;;18.20;89.60;;;;;;5055944;28;20067;-80
2021/08/06 05:06:06;;;;;;;5.07;2.97;;;18.20;88.60;;;;;;5072378;28;20016;-80
2021/08/06 05:08:32;;;;;;;4.20;2.58;;;18.20;89.20;;;;;;5056394;28;20063;-79
2021/08/06 05:10:57;;;;;;;3.95;2.55;;;18.20;89.00;;;;;;5073909;28;20102;-80
2021/08/06 05:13:23;;;;;;;3.85;2.33;;;18.20;89.50;;;;;;5074452;28;20036;-78
2021/08/06 05:15:48;;;;;;;3.70;2.50;;;18.20;88.90;;;;;;5054344;28;20021;-79
2021/08/06 05:18:14;;;;;;;4.93;2.40;;;18.30;88.10;;;;;;5067000;28;20037;-80
2021/08/06 05:20:40;;;;;;;5.60;2.70;;;18.30;86.20;;;;;;5043604;28;20035;-80
2021/08/06 05:23:05;;;;;;;6.60;2.85;;;18.30;86.70;;;;;;5064813;28;20107;-79
2021/08/06 05:25:31;;;;;;;7.78;2.85;;;18.20;88.60;;;;;;5056159;28;20020;-80
2021/08/06 05:27:57;;;;;;;4.88;2.10;;;18.30;88.60;;;;;;5071994;28;20441;-79
2021/08/06 05:30:22;;;;;;;5.70;2.47;;;18.30;88.00;;;;;;5067132;28;20050;-79
2021/08/06 05:32:51;;;;;;;5.82;2.60;;;18.30;88.30;;;;;;5055683;28;20078;-80
2021/08/06 05:35:18;;;;;;;4.13;2.30;;;18.20;87.40;;;;;;5072561;28;20048;-80
2021/08/06 05:37:44;;;;;;;4.80;2.53;;;18.20;88.20;;;;;;5055471;28;20060;-78
2021/08/06 05:40:10;;;;;;;4.22;2.47;;;18.20;87.70;;;;;;5073576;28;20032;-80
2021/08/06 05:42:36;;;;;;;2.92;1.75;;;18.20;87.80;;;;;;5068826;28;20048;-80
2021/08/06 05:45:03;;;;;;;3.33;2.10;;;18.20;87.80;;;;;;5071544;28;20020;-80
2021/08/06 05:47:40;;;;;;;3.95;2.20;;;18.30;87.90;;;;;;5068393;28;20029;-80
2021/08/06 05:50:06;;;;;;;3.47;1.90;;;18.30;87.20;;;;;;5052892;28;20075;-79
2021/08/06 05:52:31;;;;;;;6.55;2.95;;;18.30;87.30;;;;;;5067779;28;20020;-80
2021/08/06 05:54:57;;;;;;;4.03;2.05;;;18.30;86.50;;;;;;5056639;28;20024;-80
2021/08/06 05:57:23;;;;;;;4.60;2.22;;;18.30;85.90;;;;;;5070512;28;20078;-80
2021/08/06 05:59:48;;;;;;;3.97;2.35;;;18.30;85.70;;;;;;5039871;28;20025;-80
2021/08/06 06:02:14;;;;;;;4.22;2.30;;;18.30;86.20;;;;;;5043386;28;20017;-80
2021/08/06 06:04:39;;;;;;;5.40;2.30;;;18.30;85.40;;;;;;5071205;28;20036;-78
2021/08/06 06:07:05;;;;;;;4.85;2.88;;;18.30;86.30;;;;;;5064620;28;20035;-77
2021/08/06 06:09:30;;;;;;;3.45;2.05;;;18.30;87.20;;;;;;5071313;28;20073;-78
2021/08/06 06:11:56;;;;;;;4.13;2.53;;;18.30;87.20;;;;;;5073174;28;20035;-77
2021/08/06 06:14:21;;;;;;;4.50;2.60;;;18.30;86.90;;;;;;5072186;28;20421;-77
2021/08/06 06:16:47;;;;;;;5.60;3.30;;;18.30;88.30;;;;;;5071764;28;20035;-77
2021/08/06 06:19:13;;;;;;;4.63;2.45;;;18.30;89.60;;;;;;5071438;28;20024;-77
2021/08/06 06:21:38;;;;;;;7.45;3.80;;;18.30;89.50;;;;;;5059107;28;20025;-79
2021/08/06 06:24:04;;;;;;;7.40;3.30;;;18.20;90.40;;;;;;5054391;28;20028;-77
2021/08/06 06:26:30;;;;;;;6.28;4.07;;;18.20;90.10;;;;;;5058794;28;20037;-77
2021/08/06 06:28:56;;;;;;;7.32;3.80;;;18.20;91.10;;;;;;5066993;28;20023;-77
2021/08/06 06:31:21;;;;;;;5.70;2.30;;;18.20;91.20;;;;;;5091128;28;20031;-78
2021/08/06 06:33:47;;;;;;;5.30;2.70;;;18.10;91.00;;;;;;5084712;28;20092;-79
2021/08/06 06:36:12;;;;;;;4.68;3.08;;;18.20;86.80;;;;;;5056265;28;20105;-80
2021/08/06 06:38:38;;;;;;;4.80;2.95;;;18.10;90.70;;;;;;5074116;28;20095;-80
2021/08/06 06:41:04;;;;;;;5.25;2.92;;;18.20;90.70;;;;;;5076397;28;20028;-79
2021/08/06 06:43:29;;;;;;;6.22;3.17;;;18.20;91.20;;;;;;5056233;28;20017;-80
2021/08/06 06:45:55;;;;;;;4.70;2.03;;;18.20;91.50;;;;;;5058699;28;20066;-79
2021/08/06 06:48:24;;;;;;;4.32;2.53;;;18.30;90.90;;;;;;5053180;28;20025;-79
2021/08/06 06:50:50;;;;;;;5.32;2.63;;;18.20;91.40;;;;;;5052662;28;20453;-79
2021/08/06 06:53:16;;;;;;;5.63;3.42;;;18.30;91.70;;;;;;5050319;28;20120;-80
2021/08/06 06:55:41;;;;;;;6.65;3.20;;;18.30;91.80;;;;;;5051038;28;20120;-79
2021/08/06 06:58:07;;;;;;;6.97;3.67;;;18.40;91.50;;;;;;5051253;28;20333;-79
2021/08/06 07:00:33;;;;;;;4.85;3.40;;;18.40;91.50;;;;;;5053057;28;20048;-79
2021/08/06 07:03:00;;;;;;;8.38;3.00;;;18.50;91.60;;;;;;5050077;28;20029;-80
2021/08/06 07:05:26;;;;;;;4.50;2.58;;;18.60;91.40;;;;;;5051238;28;20119;-79
2021/08/06 07:07:52;;;;;;;5.85;3.33;;;18.70;91.70;;;;;;5052326;28;20064;-80
2021/08/06 07:10:18;;;;;;;5.05;3.85;;;18.70;91.10;;;;;;5051384;28;20082;-79
2021/08/06 07:12:44;;;;;;;5.38;3.35;;;18.80;90.30;;;;;;5048068;28;20021;-78
2021/08/06 07:15:11;;;;;;;7.47;4.07;;;18.90;88.70;;;;;;5050982;28;20102;-80
2021/08/06 07:17:38;;;;;;;5.20;3.50;;;19.00;90.10;;;;;;5057537;28;20259;-79
2021/08/06 07:20:05;;;;;;;6.85;4.68;;;19.10;90.10;;;;;;5071295;28;20111;-79
2021/08/06 07:22:31;;;;;;;6.22;4.22;;;19.20;90.70;;;;;;5074278;28;20017;-80
2021/08/06 07:24:56;;;;;;;8.73;5.30;;;19.30;90.70;;;;;;5075002;28;20013;-79
2021/08/06 07:27:22;;;;;;;6.18;4.13;;;19.30;89.80;;;;;;5074833;28;20102;-79
2021/08/06 07:29:48;;;;;;;7.43;4.72;;;19.40;87.90;;;;;;5074480;28;20055;-79
2021/08/06 07:32:13;;;;;;;9.13;5.45;;;19.40;88.60;;;;;;5075228;28;20063;-79
2021/08/06 07:34:39;;;;;;;10.10;7.45;;;19.30;89.80;;;;;;5074998;28;20052;-79
2021/08/06 07:37:05;;;;;;;7.32;5.50;;;19.20;90.30;;;;;;5074621;28;20459;-78
2021/08/06 07:39:30;;;;;;;8.82;7.00;;;19.20;89.90;;;;;;5075566;28;20424;-78
2021/08/06 07:41:56;;;;;;;8.90;6.68;;;19.10;89.20;;;;;;5075808;28;20032;-78
2021/08/06 07:44:22;;;;;;;10.93;7.65;;;19.10;90.20;;;;;;5076752;28;20052;-78
2021/08/06 07:46:47;;;;;;;7.03;5.95;;;19.10;90.60;;;;;;5076283;28;20111;-78
2021/08/06 07:49:13;;;;;;;7.05;5.13;;;19.20;90.40;;;;;;5075379;28;20031;-77
2021/08/06 07:51:39;;;;;;;8.05;6.00;;;19.30;90.10;;;;;;5076274;28;20028;-78
2021/08/06 07:54:05;;;;;;;7.00;5.93;;;19.40;90.10;;;;;;5074379;28;20016;-79
2021/08/06 07:56:31;;;;;;;7.65;5.30;;;19.40;89.60;;;;;;5075594;28;20055;-77
2021/08/06 07:58:57;;;;;;;8.38;5.45;;;19.40;88.50;;;;;;5074904;28;20078;-79
2021/08/06 08:01:23;;;;;;;8.73;5.90;;;19.40;88.00;;;;;;5058458;28;20031;-79
2021/08/06 08:03:49;;;;;;;9.35;6.70;;;19.30;88.40;;;;;;5046470;28;20063;-78
2021/08/06 08:06:14;;;;;;;5.30;3.80;;;19.40;88.80;;;;;;5068232;28;20021;-79
2021/08/06 08:08:40;;;;;;;7.00;5.45;;;19.50;86.20;;;;;;5070235;28;20021;-79
2021/08/06 08:11:06;;;;;;;8.15;6.15;;;19.50;85.80;;;;;;5057210;28;20025;-80
2021/08/06 08:13:32;;;;;;;6.38;4.57;;;19.60;87.10;;;;;;5055255;28;20167;-80
2021/08/06 08:15:58;;;;;;;8.10;5.45;;;19.60;84.50;;;;;;5058574;28;20116;-80
2021/08/06 08:18:24;;;;;;;6.50;5.50;;;19.60;85.90;;;;;;5067757;28;20036;-80
2021/08/06 08:20:50;;;;;;;11.02;7.22;;;19.70;85.10;;;;;;5073362;28;20115;-79
2021/08/06 08:23:16;;;;;;;8.23;6.00;;;19.70;85.50;;;;;;5066421;28;20028;-79
2021/08/06 08:25:42;;;;;;;8.18;6.53;;;19.70;84.80;;;;;;5054960;28;20035;-78
2021/08/06 08:28:08;;;;;;;8.10;6.22;;;19.70;86.10;;;;;;5053664;28;20326;-79
2021/08/06 08:30:33;;;;;;;7.47;6.38;;;19.70;86.90;;;;;;5053745;28;20017;-79
2021/08/06 08:32:59;;;;;;;9.30;6.38;;;19.70;85.60;;;;;;5052648;28;20025;-79
2021/08/06 08:35:25;;;;;;;11.88;8.38;;;19.70;85.60;;;;;;5053643;28;20107;-79
2021/08/06 08:37:50;;;;;;;6.13;3.53;;;19.70;85.70;;;;;;5055265;28;20032;-79
2021/08/06 08:40:16;;;;;;;7.53;5.05;;;19.60;82.90;;;;;;5053598;28;20143;-79
2021/08/06 08:42:44;;;;;;;6.25;4.57;;;19.70;82.90;;;;;;5054681;28;20025;-79
2021/08/06 08:45:10;;;;;;;10.63;6.03;;;19.80;83.90;;;;;;5053663;28;20033;-80
2021/08/06 08:47:37;;;;;;;7.85;5.28;;;20.10;83.80;;;;;;5053097;28;20025;-80
2021/08/06 08:50:05;;;;;;;7.00;4.72;;;20.50;81.10;;;;;;5054264;28;20029;-80
2021/08/06 08:52:32;;;;;;;9.43;5.43;;;20.70;79.70;;;;;;5037891;28;20044;-79
2021/08/06 08:54:58;;;;;;;6.78;4.80;;;21.00;78.70;;;;;;5054882;28;20057;-78
2021/08/06 08:57:24;;;;;;;7.63;4.03;;;21.20;78.00;;;;;;5054270;28;20033;-79
2021/08/06 08:59:57;;;;;;;6.72;4.40;;;21.30;76.70;;;;;;5053940;28;20048;-79
2021/08/06 09:02:24;;;;;;;8.13;4.45;;;21.20;77.00;;;;;;5055757;28;20095;-80
2021/08/06 09:05:17;;;;;;;8.25;4.80;;;21.10;77.80;;;;;;5055952;28;20487;-80
2021/08/06 09:07:43;;;;;;;8.48;4.32;;;21.00;77.60;;;;;;5054223;28;20021;-79
2021/08/06 09:10:09;;;;;;;6.07;2.80;;;21.00;78.40;;;;;;5053862;28;20021;-79
2021/08/06 09:12:48;;;;;;;9.88;4.55;;;21.10;77.10;;;;;;5054573;28;20028;-80
2021/08/06 09:15:15;;;;;;;8.02;3.97;;;21.20;78.00;;;;;;5054119;28;20078;-80
2021/08/06 09:17:41;;;;;;;7.18;4.07;;;21.40;76.60;;;;;;5036550;28;20037;-80
2021/08/06 09:20:09;;;;;;;15.00;4.82;;;21.60;76.40;;;;;;5054377;28;20047;-80
2021/08/06 09:22:35;;;;;;;8.50;3.95;;;21.80;75.30;;;;;;5059301;28;20021;-81
2021/08/06 09:25:02;;;;;;;6.05;3.53;;;21.80;73.50;;;;;;5062627;28;20051;-81
2021/08/06 09:27:32;;;;;;;8.68;4.15;;;21.70;73.50;;;;;;5059609;28;20031;-80
2021/08/06 09:29:58;;;;;;;9.32;4.72;;;21.80;73.60;;;;;;5036227;28;20218;-80
2021/08/06 09:32:25;;;;;;;5.90;3.63;;;21.90;71.90;;;;;;5053073;28;20021;-80
2021/08/06 09:34:51;;;;;;;6.40;3.75;;;22.00;72.50;;;;;;5053281;28;20045;-80
2021/08/06 09:37:21;;;;;;;5.18;3.03;;;22.10;71.80;;;;;;5055517;28;20115;-80
2021/08/06 09:39:55;;;;;;;6.47;2.85;;;22.20;71.50;;;;;;5053880;28;20043;-79
2021/08/06 09:42:28;;;;;;;5.35;2.88;;;22.10;71.20;;;;;;5055393;28;20025;-80
2021/08/06 09:45:09;;;;;;;7.70;3.53;;;22.00;72.70;;;;;;5053046;28;20127;-80
2021/08/06 09:47:39;;;;;;;8.45;3.45;;;21.90;73.00;;;;;;5055939;28;20029;-81
2021/08/06 09:50:08;;;;;;;4.67;2.43;;;21.80;72.70;;;;;;5055487;28;20021;-80
2021/08/06 09:52:45;;;;;;;4.53;2.83;;;21.80;73.10;;;;;;5053736;28;20321;-80
2021/08/06 09:55:17;;;;;;;7.13;2.95;;;21.80;72.10;;;;;;5054103;28;20457;-81
2021/08/06 09:57:44;;;;;;;6.03;2.53;;;22.00;71.30;;;;;;5037964;28;20033;-81
2021/08/06 10:00:17;;;;;;;6.10;2.78;;;22.20;71.00;;;;;;5054172;28;20081;-81
2021/08/06 10:02:43;;;;;;;6.10;2.80;;;22.30;70.70;;;;;;5057684;28;20051;-80
2021/08/06 10:05:15;;;;;;;6.57;2.45;;;22.50;70.30;;;;;;5058960;28;20025;-81
2021/08/06 10:07:47;;;;;;;5.13;2.17;;;22.60;70.70;;;;;;5070498;28;20539;-81
2021/08/06 10:10:15;;;;;;;5.32;2.20;;;22.50;69.40;;;;;;5077408;28;20075;-82
2021/08/06 10:12:42;;;;;;;6.47;2.58;;;22.30;70.00;;;;;;5072877;28;20033;-81
2021/08/06 10:15:08;;;;;;;6.32;2.58;;;22.10;69.90;;;;;;5075273;28;20024;-81
2021/08/06 10:17:34;;;;;;;7.88;2.78;;;21.90;70.40;;;;;;5056045;28;20039;-81
2021/08/06 10:20:00;;;;;;;6.35;2.55;;;21.60;71.70;;;;;;5054465;28;20024;-77
2021/08/06 10:22:26;;;;;;;5.32;3.00;;;21.40;74.50;;;;;;5073264;28;20412;-80
2021/08/06 10:24:54;;;;;;;5.97;3.25;;;21.20;74.40;;;;;;5056428;28;20025;-81
2021/08/06 10:27:29;;;;;;;8.60;3.83;;;21.00;76.20;;;;;;5056259;28;20024;-79
2021/08/06 10:30:29;;;;;;;5.32;3.67;;;21.00;77.00;;;;;;5054969;28;20057;-80
2021/08/06 10:33:19;;;;;;;7.10;3.20;;;21.10;77.40;;;;;;5073080;28;20073;-80
2021/08/06 10:35:46;;;;;;;7.10;3.55;;;21.20;77.30;;;;;;5055313;28;20073;-79
2021/08/06 10:38:15;;;;;;;7.55;3.60;;;21.40;76.90;;;;;;5054865;28;20089;-80
2021/08/06 10:40:40;;;;;;;9.70;3.40;;;21.50;77.10;;;;;;5060986;28;20020;-81
2021/08/06 10:43:09;;;;;;;4.65;2.20;;;21.80;76.70;;;;;;5055921;28;20379;-81
2021/08/06 10:45:47;;;;;;;6.10;2.17;;;22.00;74.60;;;;;;5055859;28;20223;-81
2021/08/06 10:48:31;;;;;;;6.07;2.13;;;22.20;71.90;;;;;;5055779;28;20469;-81
2021/08/06 10:51:12;;;;;;;4.10;2.03;;;22.40;71.90;;;;;;5055545;28;20036;-80
2021/08/06 10:54:07;;;;;;;4.60;1.70;;;22.50;69.20;;;;;;5057378;28;20043;-81
2021/08/06 10:56:38;;;;;;;4.22;1.55;;;22.70;68.70;;;;;;5071860;28;20523;-81
2021/08/06 10:59:12;;;;;;;4.18;1.77;;;22.60;70.00;;;;;;5060115;28;20021;-82
2021/08/06 11:01:44;;;;;;;5.95;1.58;;;22.60;70.00;;;;;;5060268;28;20123;-81
2021/08/06 11:04:13;;;;;;;4.07;1.60;;;22.50;68.80;;;;;;5043396;28;20124;-81
2021/08/06 11:06:46;;;;;;;6.20;1.85;;;22.40;69.60;;;;;;5057946;28;20029;-81
2021/08/06 11:09:35;;;;;;;4.32;1.88;;;22.50;70.10;;;;;;5056443;28;20115;-80
2021/08/06 11:12:06;;;;;;;5.63;1.67;;;22.50;71.30;;;;;;5048450;28;20427;-81
2021/08/06 11:14:35;;;;;;;5.68;1.92;;;22.60;69.70;;;;;;5057368;28;20025;-81
2021/08/06 11:17:15;;;;;;;4.20;1.63;;;23.00;68.80;;;;;;5055499;28;20484;-81
2021/08/06 11:19:45;;;;;;;;;;;23.30;69.10;;;;;;5056341;28;20029;-81
2021/08/06 11:22:16;;;;;;;5.47;1.30;;;23.30;68.60;;;;;;5055508;28;19905;-81
2021/08/06 11:24:47;;;;;;;3.33;1.45;;;23.70;68.30;;;;;;5055669;28;20436;-81
2021/08/06 11:27:15;;;;;;;2.45;1.17;;;23.90;67.30;;;;;;5055883;28;20029;-81
2021/08/06 11:29:42;;;;;;;3.88;1.02;;;24.10;65.00;;;;;;5057641;28;20025;-81
2021/08/06 11:32:12;;;;;;;4.88;1.48;;;23.80;65.00;;;;;;5056149;28;20025;-81
2021/08/06 11:34:53;;;;;;;3.17;1.45;;;23.90;65.90;;;;;;5056643;28;20098;-82
2021/08/06 11:37:24;;;;;;;4.03;1.75;;;24.10;61.60;;;;;;5056068;28;20037;-81
2021/08/06 11:40:29;;;;;;;4.15;1.55;;;24.10;61.60;;;;;;5056809;28;20017;-83
2021/08/06 11:43:08;;;;;;;4.50;1.63;;;23.90;63.00;;;;;;5059365;28;20022;-82
2021/08/06 11:45:34;;;;;;;2.05;1.05;;;23.70;63.80;;;;;;5059618;28;20035;-82
2021/08/06 11:48:01;;;;;;;3.15;1.60;;;23.50;66.00;;;;;;5056164;28;20068;-83
2021/08/06 11:50:43;;;;;;;2.20;1.30;;;23.40;62.40;;;;;;5057223;28;20025;-81
2021/08/06 11:53:15;;;;;;;3.67;1.63;;;23.30;66.10;;;;;;5062195;28;20021;-83
2021/08/06 11:55:41;;;;;;;5.30;1.50;;;23.20;64.30;;;;;;5073769;28;20076;-82
2021/08/06 11:58:07;;;;;;;2.83;1.40;;;23.30;65.70;;;;;;5074184;28;20029;-82
2021/08/06 12:00:37;;;;;;;4.65;1.45;;;23.70;64.10;;;;;;5073171;28;20059;-82
2021/08/06 12:03:09;;;;;;;2.78;1.13;;;23.90;65.50;;;;;;5072962;28;20028;-82
2021/08/06 12:05:37;;;;;;;3.25;1.13;;;24.30;63.40;;;;;;5067177;28;20051;-83
2021/08/06 12:08:16;;;;;;;1.85;0.82;;;24.50;62.10;;;;;;5065146;28;20017;-82
2021/08/06 12:10:43;;;;;;;2.22;1.00;;;24.30;63.60;;;;;;5059585;28;20020;-81
2021/08/06 12:13:11;;;;;;;3.08;1.23;;;24.10;63.60;;;;;;5062977;28;20021;-81
2021/08/06 12:15:37;;;;;;;5.20;1.75;;;23.70;62.80;;;;;;5078275;28;20025;-81
2021/08/06 12:18:19;;;;;;;3.65;1.10;;;23.50;65.40;;;;;;5059776;28;20059;-82
2021/08/06 12:20:49;;;;;;;3.80;1.58;;;23.10;65.30;;;;;;5058530;28;20465;-82
2021/08/06 12:23:20;;;;;;;2.97;1.33;;;22.90;65.90;;;;;;5058404;28;20412;-83
2021/08/06 12:26:13;;;;;;;2.60;1.30;;;22.90;66.70;;;;;;5058113;28;20021;-84
2021/08/06 12:28:51;;;;;;;2.13;1.10;;;22.80;66.70;;;;;;5058224;28;20029;-82
2021/08/06 12:31:27;;;;;;;9.95;1.80;;;22.70;69.80;;;;;;5061392;28;20209;-82
2021/08/06 12:34:23;;;;;;;5.95;1.77;;;22.50;70.00;;;;;;5063814;28;20063;-83
2021/08/06 12:36:56;;;;;;;2.58;1.42;;;22.40;72.50;;;;;;5070868;28;20044;-84
2021/08/06 12:39:23;;;;;;;4.20;1.42;;;22.50;70.40;;;;;;5057894;28;20085;-83
2021/08/06 12:41:50;;;;;;;3.45;1.20;;;22.80;70.60;;;;;;5076452;28;20020;-83
2021/08/06 12:44:23;;;;;;;2.67;0.90;;;23.00;69.30;;;;;;5056961;28;20035;-83
2021/08/06 12:47:17;;;;;;;3.28;0.70;;;23.20;68.90;;;;;;5077727;28;20029;-83
2021/08/06 12:49:52;;;;;;;0.88;0.63;;;23.40;67.20;;;;;;5074603;28;20119;-83
2021/08/06 12:52:21;;;;;;;2.78;0.73;;;23.90;63.40;;;;;;5058860;28;20439;-83
2021/08/06 12:55:08;;;;;;;1.95;0.60;;;24.00;62.50;;;;;;5056910;28;20457;-83
2021/08/06 12:57:45;;;;;;;2.08;0.80;;;24.00;64.30;;;;;;5076059;28;20031;-83